sensor_id;sensor_type;location;lat;lon;timestamp;pressure;altitude;pressure_sealevel;temperature;humidity
39455;BME280;25155;41.890;23.446;2022-12-15T00:00:09;91111.97;;;-0.23;77.44
39455;BME280;25155;41.890;23.446;2022-12-15T00:02:54;91132.34;;;-0.21;77.62
39455;BME280;25155;41.890;23.446;2022-12-15T00:05:38;91125.16;;;-0.19;77.61
39455;BME280;25155;41.890;23.446;2022-12-15T00:08:23;91125.00;;;-0.12;77.23
39455;BME280;25155;41.890;23.446;2022-12-15T00:11:07;91114.22;;;-0.09;77.39
39455;BME280;25155;41.890;23.446;2022-12-15T00:13:53;91112.13;;;-0.12;77.14
39455;BME280;25155;41.890;23.446;2022-12-15T00:16:38;91127.75;;;-0.02;76.61
39455;BME280;25155;41.890;23.446;2022-12-15T00:19:22;91109.16;;;-0.04;76.78
39455;BME280;25155;41.890;23.446;2022-12-15T00:22:07;91117.97;;;0.00;76.60
39455;BME280;25155;41.890;23.446;2022-12-15T00:24:52;91106.09;;;-0.01;76.46
39455;BME280;25155;41.890;23.446;2022-12-15T00:27:36;91116.41;;;-0.01;76.50
39455;BME280;25155;41.890;23.446;2022-12-15T00:30:22;91134.44;;;-0.01;76.11
39455;BME280;25155;41.890;23.446;2022-12-15T00:33:08;91136.41;;;-0.08;75.92
39455;BME280;25155;41.890;23.446;2022-12-15T00:35:56;91150.75;;;-0.12;76.23
39455;BME280;25155;41.890;23.446;2022-12-15T00:38:40;91124.38;;;-0.02;76.78
39455;BME280;25155;41.890;23.446;2022-12-15T00:41:10;91122.66;;;0.03;76.59
39455;BME280;25155;41.890;23.446;2022-12-15T00:43:37;91130.84;;;0.00;76.50
39455;BME280;25155;41.890;23.446;2022-12-15T00:46:06;91127.69;;;-0.07;76.80
39455;BME280;25155;41.890;23.446;2022-12-15T00:48:51;91129.06;;;-0.16;77.49
39455;BME280;25155;41.890;23.446;2022-12-15T00:51:18;91127.03;;;-0.14;77.68
39455;BME280;25155;41.890;23.446;2022-12-15T00:53:45;91122.41;;;-0.12;77.46
39455;BME280;25155;41.890;23.446;2022-12-15T00:56:30;91106.81;;;-0.06;77.42
39455;BME280;25155;41.890;23.446;2022-12-15T00:59:16;91096.25;;;-0.04;77.22
39455;BME280;25155;41.890;23.446;2022-12-15T01:02:02;91112.59;;;0.02;76.99
39455;BME280;25155;41.890;23.446;2022-12-15T01:04:47;91106.16;;;0.04;76.80
39455;BME280;25155;41.890;23.446;2022-12-15T01:07:32;91096.44;;;0.06;76.55
39455;BME280;25155;41.890;23.446;2022-12-15T01:10:17;91115.78;;;0.09;76.72
39455;BME280;25155;41.890;23.446;2022-12-15T01:13:03;91104.47;;;0.10;76.72
39455;BME280;25155;41.890;23.446;2022-12-15T01:15:47;91124.84;;;0.11;76.19
39455;BME280;25155;41.890;23.446;2022-12-15T01:18:33;91117.09;;;0.11;76.26
39455;BME280;25155;41.890;23.446;2022-12-15T01:21:18;91115.31;;;0.12;76.57
39455;BME280;25155;41.890;23.446;2022-12-15T01:23:45;91129.25;;;0.16;76.59
39455;BME280;25155;41.890;23.446;2022-12-15T01:26:13;91101.41;;;0.13;76.61
39455;BME280;25155;41.890;23.446;2022-12-15T01:28:41;91117.63;;;0.13;76.44
39455;BME280;25155;41.890;23.446;2022-12-15T01:31:09;91094.38;;;0.08;76.95
39455;BME280;25155;41.890;23.446;2022-12-15T01:33:39;91081.75;;;0.07;76.83
39455;BME280;25155;41.890;23.446;2022-12-15T01:36:08;91076.66;;;0.12;77.16
39455;BME280;25155;41.890;23.446;2022-12-15T01:38:36;91073.59;;;0.15;76.71
39455;BME280;25155;41.890;23.446;2022-12-15T01:41:05;91071.78;;;0.16;76.56
39455;BME280;25155;41.890;23.446;2022-12-15T01:43:33;91088.81;;;0.17;77.03
39455;BME280;25155;41.890;23.446;2022-12-15T01:46:04;91060.25;;;0.18;76.54
39455;BME280;25155;41.890;23.446;2022-12-15T01:48:41;91091.88;;;0.13;76.67
39455;BME280;25155;41.890;23.446;2022-12-15T01:51:15;91084.22;;;0.19;76.13
39455;BME280;25155;41.890;23.446;2022-12-15T01:53:49;91088.75;;;0.11;77.02
39455;BME280;25155;41.890;23.446;2022-12-15T01:56:19;91088.28;;;0.14;76.50
39455;BME280;25155;41.890;23.446;2022-12-15T01:58:48;91088.03;;;0.16;76.84
39455;BME280;25155;41.890;23.446;2022-12-15T02:01:17;91077.19;;;0.14;76.88
39455;BME280;25155;41.890;23.446;2022-12-15T02:03:46;91076.41;;;0.13;76.38
39455;BME280;25155;41.890;23.446;2022-12-15T02:06:14;91090.94;;;0.20;76.72
39455;BME280;25155;41.890;23.446;2022-12-15T02:08:44;91073.78;;;0.08;76.54
39455;BME280;25155;41.890;23.446;2022-12-15T02:11:32;91086.72;;;0.13;76.56
39455;BME280;25155;41.890;23.446;2022-12-15T02:14:07;91074.06;;;0.12;76.77
39455;BME280;25155;41.890;23.446;2022-12-15T02:16:50;91082.81;;;0.11;76.98
39455;BME280;25155;41.890;23.446;2022-12-15T02:19:46;91081.50;;;0.08;76.86
39455;BME280;25155;41.890;23.446;2022-12-15T02:22:28;91090.78;;;0.09;76.80
39455;BME280;25155;41.890;23.446;2022-12-15T02:25:24;91091.50;;;0.05;76.97
39455;BME280;25155;41.890;23.446;2022-12-15T02:28:01;91090.78;;;0.09;77.33
39455;BME280;25155;41.890;23.446;2022-12-15T02:30:45;91093.84;;;0.06;76.78
39455;BME280;25155;41.890;23.446;2022-12-15T02:33:40;91094.91;;;0.10;77.58
39455;BME280;25155;41.890;23.446;2022-12-15T02:36:15;91106.56;;;0.13;77.49
39455;BME280;25155;41.890;23.446;2022-12-15T02:38:44;91116.94;;;0.01;78.01
39455;BME280;25155;41.890;23.446;2022-12-15T02:41:35;91095.13;;;-0.13;77.96
39455;BME280;25155;41.890;23.446;2022-12-15T02:44:08;91127.19;;;-0.04;77.95
39455;BME280;25155;41.890;23.446;2022-12-15T02:46:50;91092.16;;;-0.05;77.64
39455;BME280;25155;41.890;23.446;2022-12-15T02:49:26;91096.03;;;-0.02;77.78
39455;BME280;25155;41.890;23.446;2022-12-15T02:52:07;91105.09;;;0.00;77.31
39455;BME280;25155;41.890;23.446;2022-12-15T02:54:54;91114.94;;;0.03;78.07
39455;BME280;25155;41.890;23.446;2022-12-15T02:57:27;91110.00;;;0.02;78.47
39455;BME280;25155;41.890;23.446;2022-12-15T03:00:00;91122.34;;;-0.00;78.42
39455;BME280;25155;41.890;23.446;2022-12-15T03:02:29;91128.63;;;-0.30;79.51
39455;BME280;25155;41.890;23.446;2022-12-15T03:04:57;91124.75;;;-0.11;79.32
39455;BME280;25155;41.890;23.446;2022-12-15T03:07:26;91118.69;;;-0.05;79.01
39455;BME280;25155;41.890;23.446;2022-12-15T03:09:54;91107.59;;;-0.05;79.05
39455;BME280;25155;41.890;23.446;2022-12-15T03:12:22;91126.38;;;0.12;78.85
39455;BME280;25155;41.890;23.446;2022-12-15T03:14:50;91116.88;;;0.13;78.70
39455;BME280;25155;41.890;23.446;2022-12-15T03:17:18;91129.34;;;0.21;78.54
39455;BME280;25155;41.890;23.446;2022-12-15T03:19:46;91132.69;;;0.22;77.75
39455;BME280;25155;41.890;23.446;2022-12-15T03:22:14;91125.91;;;0.16;78.52
39455;BME280;25155;41.890;23.446;2022-12-15T03:24:41;91134.50;;;0.04;80.13
39455;BME280;25155;41.890;23.446;2022-12-15T03:27:09;91135.06;;;0.06;80.08
39455;BME280;25155;41.890;23.446;2022-12-15T03:29:36;91138.97;;;0.09;80.24
39455;BME280;25155;41.890;23.446;2022-12-15T03:32:04;91146.75;;;0.14;79.73
39455;BME280;25155;41.890;23.446;2022-12-15T03:34:31;91132.94;;;0.20;79.90
39455;BME280;25155;41.890;23.446;2022-12-15T03:37:00;91145.81;;;0.20;79.27
39455;BME280;25155;41.890;23.446;2022-12-15T03:39:27;91136.34;;;0.26;79.41
39455;BME280;25155;41.890;23.446;2022-12-15T03:41:54;91135.09;;;0.28;79.25
39455;BME280;25155;41.890;23.446;2022-12-15T03:44:22;91143.13;;;0.32;78.80
39455;BME280;25155;41.890;23.446;2022-12-15T03:46:49;91153.44;;;0.32;78.68
39455;BME280;25155;41.890;23.446;2022-12-15T03:49:19;91160.94;;;0.33;78.75
39455;BME280;25155;41.890;23.446;2022-12-15T03:51:46;91154.03;;;0.39;78.29
39455;BME280;25155;41.890;23.446;2022-12-15T03:54:16;91151.16;;;0.36;78.66
39455;BME280;25155;41.890;23.446;2022-12-15T03:56:43;91083.41;;;-0.21;78.28
39455;BME280;25155;41.890;23.446;2022-12-15T03:59:10;91169.22;;;0.36;78.40
39455;BME280;25155;41.890;23.446;2022-12-15T04:01:44;91182.91;;;0.36;78.61
39455;BME280;25155;41.890;23.446;2022-12-15T04:04:12;91166.94;;;0.39;78.75
39455;BME280;25155;41.890;23.446;2022-12-15T04:06:39;91188.34;;;0.40;78.82
39455;BME280;25155;41.890;23.446;2022-12-15T04:09:07;91173.66;;;0.40;78.44
39455;BME280;25155;41.890;23.446;2022-12-15T04:11:35;91180.38;;;0.41;78.67
39455;BME280;25155;41.890;23.446;2022-12-15T04:14:02;91191.53;;;0.47;78.89
39455;BME280;25155;41.890;23.446;2022-12-15T04:16:30;91190.22;;;0.44;78.59
39455;BME280;25155;41.890;23.446;2022-12-15T04:18:57;91178.88;;;0.45;78.67
39455;BME280;25155;41.890;23.446;2022-12-15T04:21:41;91190.22;;;0.44;78.88
39455;BME280;25155;41.890;23.446;2022-12-15T04:24:09;91179.59;;;0.41;79.01
39455;BME280;25155;41.890;23.446;2022-12-15T04:26:55;91181.09;;;0.37;78.78
39455;BME280;25155;41.890;23.446;2022-12-15T04:29:39;91179.59;;;0.41;79.02
39455;BME280;25155;41.890;23.446;2022-12-15T04:32:24;91169.28;;;0.41;78.86
39455;BME280;25155;41.890;23.446;2022-12-15T04:35:10;91195.84;;;0.41;79.12
39455;BME280;25155;41.890;23.446;2022-12-15T04:37:55;91183.75;;;0.42;79.21
39455;BME280;25155;41.890;23.446;2022-12-15T04:40:39;91191.78;;;0.45;79.08
39455;BME280;25155;41.890;23.446;2022-12-15T04:43:28;91199.50;;;0.45;78.88
39455;BME280;25155;41.890;23.446;2022-12-15T04:46:13;91204.19;;;0.48;78.92
39455;BME280;25155;41.890;23.446;2022-12-15T04:48:57;91194.88;;;0.47;79.52
39455;BME280;25155;41.890;23.446;2022-12-15T04:51:42;91194.66;;;0.49;79.19
39455;BME280;25155;41.890;23.446;2022-12-15T04:54:26;91209.13;;;0.50;79.11
39455;BME280;25155;41.890;23.446;2022-12-15T04:57:11;91210.91;;;0.49;79.47
39455;BME280;25155;41.890;23.446;2022-12-15T04:59:56;91221.78;;;0.51;79.39
39455;BME280;25155;41.890;23.446;2022-12-15T05:02:41;91197.41;;;0.42;79.59
39455;BME280;25155;41.890;23.446;2022-12-15T05:05:25;91223.81;;;0.49;79.25
39455;BME280;25155;41.890;23.446;2022-12-15T05:08:10;91218.59;;;0.44;79.23
39455;BME280;25155;41.890;23.446;2022-12-15T05:10:54;91221.56;;;0.36;79.78
39455;BME280;25155;41.890;23.446;2022-12-15T05:13:42;91245.38;;;0.43;79.52
39455;BME280;25155;41.890;23.446;2022-12-15T05:16:27;91230.53;;;0.33;79.51
39455;BME280;25155;41.890;23.446;2022-12-15T05:19:12;91237.34;;;0.40;79.78
39455;BME280;25155;41.890;23.446;2022-12-15T05:21:56;91243.97;;;0.36;80.48
39455;BME280;25155;41.890;23.446;2022-12-15T05:24:41;91250.63;;;0.31;80.26
39455;BME280;25155;41.890;23.446;2022-12-15T05:27:25;91251.47;;;0.37;80.04
39455;BME280;25155;41.890;23.446;2022-12-15T05:30:10;91255.16;;;0.41;80.17
39455;BME280;25155;41.890;23.446;2022-12-15T05:32:57;91255.91;;;0.42;79.94
39455;BME280;25155;41.890;23.446;2022-12-15T05:35:24;91261.69;;;0.49;79.65
39455;BME280;25155;41.890;23.446;2022-12-15T05:37:51;91265.59;;;0.51;79.45
39455;BME280;25155;41.890;23.446;2022-12-15T05:40:19;91270.84;;;0.57;79.73
39455;BME280;25155;41.890;23.446;2022-12-15T05:42:46;91283.25;;;0.60;79.59
39455;BME280;25155;41.890;23.446;2022-12-15T05:45:13;91284.84;;;0.61;79.48
39455;BME280;25155;41.890;23.446;2022-12-15T05:47:41;91280.69;;;0.60;79.13
39455;BME280;25155;41.890;23.446;2022-12-15T05:50:09;91297.47;;;0.62;79.47
39455;BME280;25155;41.890;23.446;2022-12-15T05:52:37;91294.88;;;0.62;78.79
39455;BME280;25155;41.890;23.446;2022-12-15T05:55:04;91298.50;;;0.61;78.94
39455;BME280;25155;41.890;23.446;2022-12-15T05:57:33;91306.00;;;0.63;79.13
39455;BME280;25155;41.890;23.446;2022-12-15T06:00:00;91309.50;;;0.57;79.94
39455;BME280;25155;41.890;23.446;2022-12-15T06:02:27;91308.97;;;0.55;80.00
39455;BME280;25155;41.890;23.446;2022-12-15T06:04:55;91310.06;;;0.59;80.17
39455;BME280;25155;41.890;23.446;2022-12-15T06:07:23;91308.03;;;0.61;80.00
39455;BME280;25155;41.890;23.446;2022-12-15T06:09:51;91321.00;;;0.66;80.00
39455;BME280;25155;41.890;23.446;2022-12-15T06:12:18;91309.97;;;0.70;79.67
39455;BME280;25155;41.890;23.446;2022-12-15T06:14:45;91308.19;;;0.71;79.93
39455;BME280;25155;41.890;23.446;2022-12-15T06:17:12;91316.47;;;0.73;79.41
39455;BME280;25155;41.890;23.446;2022-12-15T06:19:39;91305.59;;;0.71;79.91
39455;BME280;25155;41.890;23.446;2022-12-15T06:22:07;91319.88;;;0.79;79.83
39455;BME280;25155;41.890;23.446;2022-12-15T06:24:36;91309.56;;;0.79;79.31
39455;BME280;25155;41.890;23.446;2022-12-15T06:27:04;91331.06;;;0.84;79.74
39455;BME280;25155;41.890;23.446;2022-12-15T06:29:31;91329.03;;;0.86;79.20
39455;BME280;25155;41.890;23.446;2022-12-15T06:31:58;91329.56;;;0.88;79.60
39455;BME280;25155;41.890;23.446;2022-12-15T06:34:25;91333.50;;;0.91;78.96
39455;BME280;25155;41.890;23.446;2022-12-15T06:36:53;91346.63;;;0.90;79.55
39455;BME280;25155;41.890;23.446;2022-12-15T06:39:20;91348.34;;;0.84;79.69
39455;BME280;25155;41.890;23.446;2022-12-15T06:41:49;91348.09;;;0.85;79.51
39455;BME280;25155;41.890;23.446;2022-12-15T06:44:16;91359.53;;;0.90;79.83
39455;BME280;25155;41.890;23.446;2022-12-15T06:46:44;91359.06;;;0.93;79.76
39455;BME280;25155;41.890;23.446;2022-12-15T06:49:21;91357.88;;;0.83;79.84
39455;BME280;25155;41.890;23.446;2022-12-15T06:51:49;91359.75;;;0.88;80.27
39455;BME280;25155;41.890;23.446;2022-12-15T06:54:16;91365.22;;;0.92;79.71
39455;BME280;25155;41.890;23.446;2022-12-15T06:56:43;91354.97;;;0.97;79.76
39455;BME280;25155;41.890;23.446;2022-12-15T06:59:12;91374.59;;;0.98;79.13
39455;BME280;25155;41.890;23.446;2022-12-15T07:01:39;91371.00;;;0.99;79.09
39455;BME280;25155;41.890;23.446;2022-12-15T07:04:07;91371.09;;;1.04;79.53
39455;BME280;25155;41.890;23.446;2022-12-15T07:06:36;91381.19;;;1.05;79.54
39455;BME280;25155;41.890;23.446;2022-12-15T07:09:06;91364.81;;;1.00;79.13
39455;BME280;25155;41.890;23.446;2022-12-15T07:11:35;91376.56;;;1.07;79.54
39455;BME280;25155;41.890;23.446;2022-12-15T07:14:02;91391.56;;;1.11;79.12
39455;BME280;25155;41.890;23.446;2022-12-15T07:16:31;91381.03;;;1.12;79.40
39455;BME280;25155;41.890;23.446;2022-12-15T07:18:58;91385.69;;;1.15;79.46
39455;BME280;25155;41.890;23.446;2022-12-15T07:21:25;91383.66;;;1.17;78.85
39455;BME280;25155;41.890;23.446;2022-12-15T07:23:53;91383.72;;;1.22;79.36
39455;BME280;25155;41.890;23.446;2022-12-15T07:26:20;91381.16;;;1.22;79.41
39455;BME280;25155;41.890;23.446;2022-12-15T07:28:48;91378.81;;;1.21;79.87
39455;BME280;25155;41.890;23.446;2022-12-15T07:31:15;91380.69;;;1.25;80.26
39455;BME280;25155;41.890;23.446;2022-12-15T07:33:46;91386.16;;;1.29;80.14
39455;BME280;25155;41.890;23.446;2022-12-15T07:36:13;91388.03;;;1.34;80.09
39455;BME280;25155;41.890;23.446;2022-12-15T07:38:41;91388.88;;;1.39;80.19
39455;BME280;25155;41.890;23.446;2022-12-15T07:41:10;91393.84;;;1.46;80.07
39455;BME280;25155;41.890;23.446;2022-12-15T07:43:37;91385.63;;;1.49;79.83
39455;BME280;25155;41.890;23.446;2022-12-15T07:46:05;91406.91;;;1.56;79.88
39455;BME280;25155;41.890;23.446;2022-12-15T07:48:33;91397.91;;;1.59;79.64
39455;BME280;25155;41.890;23.446;2022-12-15T07:51:06;91404.88;;;1.58;79.82
39455;BME280;25155;41.890;23.446;2022-12-15T07:53:33;91403.13;;;1.64;79.71
39455;BME280;25155;41.890;23.446;2022-12-15T07:56:01;91413.00;;;1.67;80.13
39455;BME280;25155;41.890;23.446;2022-12-15T07:58:30;91412.75;;;1.69;79.71
39455;BME280;25155;41.890;23.446;2022-12-15T08:00:58;91420.03;;;1.72;79.51
39455;BME280;25155;41.890;23.446;2022-12-15T08:03:26;91426.75;;;1.73;79.70
39455;BME280;25155;41.890;23.446;2022-12-15T08:05:54;91435.03;;;1.75;79.99
39455;BME280;25155;41.890;23.446;2022-12-15T08:08:22;91442.00;;;1.74;79.80
39455;BME280;25155;41.890;23.446;2022-12-15T08:10:50;91424.69;;;1.75;80.47
39455;BME280;25155;41.890;23.446;2022-12-15T08:13:17;91435.59;;;1.77;80.61
39455;BME280;25155;41.890;23.446;2022-12-15T08:15:44;91435.66;;;1.82;80.27
39455;BME280;25155;41.890;23.446;2022-12-15T08:18:12;91435.19;;;1.85;80.71
39455;BME280;25155;41.890;23.446;2022-12-15T08:20:39;91437.28;;;1.88;80.65
39455;BME280;25155;41.890;23.446;2022-12-15T08:23:06;91432.88;;;1.89;80.62
39455;BME280;25155;41.890;23.446;2022-12-15T08:25:35;91445.63;;;1.95;80.60
39455;BME280;25155;41.890;23.446;2022-12-15T08:28:02;91443.63;;;2.03;81.00
39455;BME280;25155;41.890;23.446;2022-12-15T08:30:31;91434.34;;;2.02;80.63
39455;BME280;25155;41.890;23.446;2022-12-15T08:32:59;91444.78;;;2.12;80.88
39455;BME280;25155;41.890;23.446;2022-12-15T08:35:26;91442.25;;;2.17;80.88
39455;BME280;25155;41.890;23.446;2022-12-15T08:37:54;91447.50;;;2.22;81.00
39455;BME280;25155;41.890;23.446;2022-12-15T08:40:21;91447.31;;;2.29;81.17
39455;BME280;25155;41.890;23.446;2022-12-15T08:42:49;91443.22;;;2.33;81.50
39455;BME280;25155;41.890;23.446;2022-12-15T08:45:17;91458.31;;;2.41;81.62
39455;BME280;25155;41.890;23.446;2022-12-15T08:47:45;91462.22;;;2.44;81.34
39455;BME280;25155;41.890;23.446;2022-12-15T08:50:13;91469.06;;;2.55;81.28
39455;BME280;25155;41.890;23.446;2022-12-15T08:52:40;91465.75;;;2.60;81.25
39455;BME280;25155;41.890;23.446;2022-12-15T08:55:08;91467.56;;;2.64;81.62
39455;BME280;25155;41.890;23.446;2022-12-15T08:57:37;91456.25;;;2.70;81.68
39455;BME280;25155;41.890;23.446;2022-12-15T09:00:08;91458.06;;;2.70;81.42
39455;BME280;25155;41.890;23.446;2022-12-15T09:02:35;91456.78;;;2.72;82.06
39455;BME280;25155;41.890;23.446;2022-12-15T09:05:03;91456.25;;;2.70;82.06
39455;BME280;25155;41.890;23.446;2022-12-15T09:07:30;91443.81;;;2.67;81.78
39455;BME280;25155;41.890;23.446;2022-12-15T09:09:58;91448.78;;;2.74;81.65
39455;BME280;25155;41.890;23.446;2022-12-15T09:12:26;91451.94;;;2.76;82.01
39455;BME280;25155;41.890;23.446;2022-12-15T09:14:53;91451.13;;;2.76;81.55
39455;BME280;25155;41.890;23.446;2022-12-15T09:17:22;91464.13;;;2.81;81.50
39455;BME280;25155;41.890;23.446;2022-12-15T09:19:49;91450.69;;;2.84;81.72
39455;BME280;25155;41.890;23.446;2022-12-15T09:22:17;91449.69;;;2.85;81.74
39455;BME280;25155;41.890;23.446;2022-12-15T09:24:45;91459.06;;;2.91;82.29
39455;BME280;25155;41.890;23.446;2022-12-15T09:27:12;91454.91;;;2.90;82.15
39455;BME280;25155;41.890;23.446;2022-12-15T09:29:39;91451.56;;;2.95;82.35
39455;BME280;25155;41.890;23.446;2022-12-15T09:32:06;91457.59;;;3.00;81.93
39455;BME280;25155;41.890;23.446;2022-12-15T09:34:35;91461.28;;;3.04;81.76
39455;BME280;25155;41.890;23.446;2022-12-15T09:37:03;91453.78;;;3.08;81.73
39455;BME280;25155;41.890;23.446;2022-12-15T09:39:30;91448.66;;;3.13;81.83
39455;BME280;25155;41.890;23.446;2022-12-15T09:41:59;91473.00;;;3.17;82.07
39455;BME280;25155;41.890;23.446;2022-12-15T09:44:28;91453.06;;;3.13;82.26
39455;BME280;25155;41.890;23.446;2022-12-15T09:47:07;91460.84;;;3.18;81.88
39455;BME280;25155;41.890;23.446;2022-12-15T09:49:49;91471.72;;;3.15;82.34
39455;BME280;25155;41.890;23.446;2022-12-15T09:52:21;91474.53;;;3.13;82.58
39455;BME280;25155;41.890;23.446;2022-12-15T09:54:49;91460.19;;;3.00;82.35
39455;BME280;25155;41.890;23.446;2022-12-15T09:57:28;91466.97;;;3.06;82.78
39455;BME280;25155;41.890;23.446;2022-12-15T10:00:08;91466.00;;;3.13;82.74
39455;BME280;25155;41.890;23.446;2022-12-15T10:03:07;91467.06;;;3.17;82.41
39455;BME280;25155;41.890;23.446;2022-12-15T10:05:45;91466.84;;;3.23;82.49
39455;BME280;25155;41.890;23.446;2022-12-15T10:08:18;91472.34;;;3.32;82.38
39455;BME280;25155;41.890;23.446;2022-12-15T10:10:51;91473.44;;;3.36;82.68
39455;BME280;25155;41.890;23.446;2022-12-15T10:13:23;91476.22;;;3.30;82.13
39455;BME280;25155;41.890;23.446;2022-12-15T10:15:59;91472.56;;;3.25;82.83
39455;BME280;25155;41.890;23.446;2022-12-15T10:18:34;91473.63;;;3.30;83.26
39455;BME280;25155;41.890;23.446;2022-12-15T10:21:10;91467.16;;;3.32;82.61
39455;BME280;25155;41.890;23.446;2022-12-15T10:23:39;91481.28;;;3.46;83.19
39455;BME280;25155;41.890;23.446;2022-12-15T10:26:16;91486.97;;;3.49;82.82
39455;BME280;25155;41.890;23.446;2022-12-15T10:28:54;91477.19;;;3.56;82.93
39455;BME280;25155;41.890;23.446;2022-12-15T10:31:35;91474.59;;;3.56;83.12
39455;BME280;25155;41.890;23.446;2022-12-15T10:34:09;91476.16;;;3.57;82.90
39455;BME280;25155;41.890;23.446;2022-12-15T10:36:45;91478.47;;;3.53;83.17
39455;BME280;25155;41.890;23.446;2022-12-15T10:39:16;91488.13;;;3.63;82.95
39455;BME280;25155;41.890;23.446;2022-12-15T10:41:43;91494.13;;;3.69;83.10
39455;BME280;25155;41.890;23.446;2022-12-15T10:44:22;91493.38;;;3.73;83.00
39455;BME280;25155;41.890;23.446;2022-12-15T10:46:54;91493.16;;;3.80;82.55
39455;BME280;25155;41.890;23.446;2022-12-15T10:49:23;91493.41;;;3.78;82.70
39455;BME280;25155;41.890;23.446;2022-12-15T10:51:54;91492.66;;;3.83;82.14
39455;BME280;25155;41.890;23.446;2022-12-15T10:54:22;91499.78;;;3.60;83.08
39455;BME280;25155;41.890;23.446;2022-12-15T10:56:51;91489.03;;;3.84;83.30
39455;BME280;25155;41.890;23.446;2022-12-15T10:59:25;91485.69;;;3.89;82.85
39455;BME280;25155;41.890;23.446;2022-12-15T11:01:55;91496.66;;;4.06;82.94
39455;BME280;25155;41.890;23.446;2022-12-15T11:04:27;91497.25;;;4.13;82.59
39455;BME280;25155;41.890;23.446;2022-12-15T11:06:57;91492.88;;;4.24;82.82
39455;BME280;25155;41.890;23.446;2022-12-15T11:09:31;91493.97;;;4.33;82.78
39455;BME280;25155;41.890;23.446;2022-12-15T11:11:59;91489.28;;;4.35;82.16
39455;BME280;25155;41.890;23.446;2022-12-15T11:14:45;91483.34;;;4.40;81.89
39455;BME280;25155;41.890;23.446;2022-12-15T11:17:15;91488.06;;;4.48;82.10
39455;BME280;25155;41.890;23.446;2022-12-15T11:19:49;91494.28;;;4.52;82.43
39455;BME280;25155;41.890;23.446;2022-12-15T11:22:23;91489.38;;;4.56;82.23
39455;BME280;25155;41.890;23.446;2022-12-15T11:24:59;91496.91;;;4.63;82.15
39455;BME280;25155;41.890;23.446;2022-12-15T11:27:32;91497.47;;;4.70;82.21
39455;BME280;25155;41.890;23.446;2022-12-15T11:30:09;91490.44;;;4.70;82.06
39455;BME280;25155;41.890;23.446;2022-12-15T11:32:40;91499.03;;;4.76;82.12
39455;BME280;25155;41.890;23.446;2022-12-15T11:35:11;91507.09;;;4.80;82.20
39455;BME280;25155;41.890;23.446;2022-12-15T11:37:42;91512.56;;;4.83;82.13
39455;BME280;25155;41.890;23.446;2022-12-15T11:40:39;91492.78;;;4.72;81.60
39455;BME280;25155;41.890;23.446;2022-12-15T11:43:33;91515.19;;;4.93;81.60
39455;BME280;25155;41.890;23.446;2022-12-15T11:46:19;91514.66;;;4.91;81.93
39455;BME280;25155;41.890;23.446;2022-12-15T11:49:00;91517.78;;;4.99;81.52
39455;BME280;25155;41.890;23.446;2022-12-15T11:51:35;91518.84;;;5.03;81.67
39455;BME280;25155;41.890;23.446;2022-12-15T11:54:16;91527.66;;;5.07;81.21
39455;BME280;25155;41.890;23.446;2022-12-15T11:56:49;91522.47;;;5.12;81.72
39455;BME280;25155;41.890;23.446;2022-12-15T11:59:32;91521.47;;;5.13;81.34
39455;BME280;25155;41.890;23.446;2022-12-15T12:02:15;91522.47;;;5.12;81.62
39455;BME280;25155;41.890;23.446;2022-12-15T12:04:59;91519.63;;;5.13;81.58
39455;BME280;25155;41.890;23.446;2022-12-15T12:07:34;91525.88;;;5.18;81.62
39455;BME280;25155;41.890;23.446;2022-12-15T12:10:22;91523.81;;;5.20;80.90
39455;BME280;25155;41.890;23.446;2022-12-15T12:13:02;91528.75;;;5.16;81.21
39455;BME280;25155;41.890;23.446;2022-12-15T12:15:43;91533.69;;;5.18;81.10
39455;BME280;25155;41.890;23.446;2022-12-15T12:18:18;91526.91;;;5.22;81.25
39455;BME280;25155;41.890;23.446;2022-12-15T12:20:49;91539.66;;;5.23;81.37
39455;BME280;25155;41.890;23.446;2022-12-15T12:23:19;91532.84;;;4.91;82.10
39455;BME280;25155;41.890;23.446;2022-12-15T12:25:53;91542.13;;;4.77;82.50
39455;BME280;25155;41.890;23.446;2022-12-15T12:28:24;91536.13;;;4.66;82.67
39455;BME280;25155;41.890;23.446;2022-12-15T12:30:52;91540.25;;;4.62;83.02
39455;BME280;25155;41.890;23.446;2022-12-15T12:33:22;91544.19;;;4.65;83.30
39455;BME280;25155;41.890;23.446;2022-12-15T12:35:54;91545.69;;;4.61;83.86
39455;BME280;25155;41.890;23.446;2022-12-15T12:38:23;91552.69;;;4.50;83.42
39455;BME280;25155;41.890;23.446;2022-12-15T12:40:54;91550.59;;;4.52;83.48
39455;BME280;25155;41.890;23.446;2022-12-15T12:43:31;91556.06;;;4.55;83.92
39455;BME280;25155;41.890;23.446;2022-12-15T12:46:00;91562.81;;;4.56;83.75
39455;BME280;25155;41.890;23.446;2022-12-15T12:48:29;91558.91;;;4.54;83.84
39455;BME280;25155;41.890;23.446;2022-12-15T12:53:52;91571.38;;;4.52;84.07
39455;BME280;25155;41.890;23.446;2022-12-15T12:56:34;91564.34;;;4.52;84.04
39455;BME280;25155;41.890;23.446;2022-12-15T12:59:02;91574.22;;;4.55;84.38
39455;BME280;25155;41.890;23.446;2022-12-15T13:01:34;91564.06;;;4.49;84.94
39455;BME280;25155;41.890;23.446;2022-12-15T13:04:06;91568.50;;;4.48;85.01
39455;BME280;25155;41.890;23.446;2022-12-15T13:09:22;91576.78;;;4.45;85.21
39455;BME280;25155;41.890;23.446;2022-12-15T13:14:33;91584.09;;;4.53;85.79
39455;BME280;25155;41.890;23.446;2022-12-15T13:17:02;91586.94;;;4.52;86.41
39455;BME280;25155;41.890;23.446;2022-12-15T13:22:21;91592.41;;;4.55;86.21
39455;BME280;25155;41.890;23.446;2022-12-15T13:24:49;91596.84;;;4.60;86.34
39455;BME280;25155;41.890;23.446;2022-12-15T13:27:16;91594.50;;;4.64;86.25
39455;BME280;25155;41.890;23.446;2022-12-15T13:29:58;91601.28;;;4.65;85.72
39455;BME280;25155;41.890;23.446;2022-12-15T13:32:30;91606.72;;;4.63;85.93
39455;BME280;25155;41.890;23.446;2022-12-15T13:34:58;91610.59;;;4.61;85.73
39455;BME280;25155;41.890;23.446;2022-12-15T13:37:45;91610.56;;;4.55;85.89
39455;BME280;25155;41.890;23.446;2022-12-15T13:40:25;91610.53;;;4.50;86.88
39455;BME280;25155;41.890;23.446;2022-12-15T13:42:58;91614.16;;;4.49;86.68